sensor_id;sensor_type;location;lat;lon;timestamp;P1;durP1;ratioP1;P2;durP2;ratioP2
1569;SDS011;778;50.120;8.698;2023-04-03T00:01:36;1.80;;;1.70;;
1569;SDS011;778;50.120;8.698;2023-04-03T00:04:04;4.77;;;2.37;;
1569;SDS011;778;50.120;8.698;2023-04-03T00:06:33;2.70;;;1.90;;
1569;SDS011;778;50.120;8.698;2023-04-03T00:09:01;3.27;;;2.20;;
1569;SDS011;778;50.120;8.698;2023-04-03T00:11:32;2.70;;;2.10;;
1569;SDS011;778;50.120;8.698;2023-04-03T00:14:00;4.93;;;2.50;;
1569;SDS011;778;50.120;8.698;2023-04-03T00:16:29;3.00;;;1.97;;
1569;SDS011;778;50.120;8.698;2023-04-03T00:18:57;3.87;;;2.10;;
1569;SDS011;778;50.120;8.698;2023-04-03T00:21:26;2.60;;;1.70;;
1569;SDS011;778;50.120;8.698;2023-04-03T00:23:54;3.43;;;2.23;;
1569;SDS011;778;50.120;8.698;2023-04-03T00:26:23;3.10;;;2.27;;
1569;SDS011;778;50.120;8.698;2023-04-03T00:28:53;4.10;;;2.27;;
1569;SDS011;778;50.120;8.698;2023-04-03T00:31:22;3.60;;;2.30;;
1569;SDS011;778;50.120;8.698;2023-04-03T00:33:51;4.43;;;2.27;;
1569;SDS011;778;50.120;8.698;2023-04-03T00:36:19;2.17;;;2.00;;
1569;SDS011;778;50.120;8.698;2023-04-03T00:38:48;2.40;;;2.00;;
1569;SDS011;778;50.120;8.698;2023-04-03T00:41:16;5.10;;;2.00;;
1569;SDS011;778;50.120;8.698;2023-04-03T00:43:45;3.30;;;2.60;;
1569;SDS011;778;50.120;8.698;2023-04-03T00:46:14;3.10;;;2.03;;
1569;SDS011;778;50.120;8.698;2023-04-03T00:48:44;3.30;;;1.83;;
1569;SDS011;778;50.120;8.698;2023-04-03T00:51:17;1.87;;;1.63;;
1569;SDS011;778;50.120;8.698;2023-04-03T00:53:52;3.13;;;1.90;;
1569;SDS011;778;50.120;8.698;2023-04-03T00:56:23;2.53;;;1.60;;
1569;SDS011;778;50.120;8.698;2023-04-03T00:58:56;3.30;;;1.70;;
1569;SDS011;778;50.120;8.698;2023-04-03T01:01:30;2.50;;;1.90;;
1569;SDS011;778;50.120;8.698;2023-04-03T01:04:00;5.23;;;2.50;;
1569;SDS011;778;50.120;8.698;2023-04-03T01:06:31;2.40;;;1.50;;
1569;SDS011;778;50.120;8.698;2023-04-03T01:09:05;2.87;;;2.03;;
1569;SDS011;778;50.120;8.698;2023-04-03T01:11:34;3.80;;;1.67;;
1569;SDS011;778;50.120;8.698;2023-04-03T01:14:03;2.97;;;2.00;;
1569;SDS011;778;50.120;8.698;2023-04-03T01:16:33;3.80;;;1.93;;
1569;SDS011;778;50.120;8.698;2023-04-03T01:19:02;2.20;;;1.60;;
1569;SDS011;778;50.120;8.698;2023-04-03T01:21:45;1.43;;;1.33;;
1569;SDS011;778;50.120;8.698;2023-04-03T01:24:32;4.90;;;1.80;;
1569;SDS011;778;50.120;8.698;2023-04-03T01:27:05;1.47;;;1.37;;
1569;SDS011;778;50.120;8.698;2023-04-03T01:29:36;2.97;;;1.50;;
1569;SDS011;778;50.120;8.698;2023-04-03T01:32:07;3.23;;;1.77;;
1569;SDS011;778;50.120;8.698;2023-04-03T01:34:36;1.77;;;1.53;;
1569;SDS011;778;50.120;8.698;2023-04-03T01:37:05;4.27;;;1.80;;
1569;SDS011;778;50.120;8.698;2023-04-03T01:39:33;2.50;;;1.50;;
1569;SDS011;778;50.120;8.698;2023-04-03T01:42:02;3.20;;;1.60;;
1569;SDS011;778;50.120;8.698;2023-04-03T01:44:36;3.40;;;1.87;;
1569;SDS011;778;50.120;8.698;2023-04-03T01:47:06;3.10;;;1.40;;
1569;SDS011;778;50.120;8.698;2023-04-03T01:49:36;4.27;;;1.70;;
1569;SDS011;778;50.120;8.698;2023-04-03T01:52:05;2.23;;;1.83;;
1569;SDS011;778;50.120;8.698;2023-04-03T01:54:34;4.60;;;1.77;;
1569;SDS011;778;50.120;8.698;2023-04-03T01:57:02;1.93;;;1.40;;
1569;SDS011;778;50.120;8.698;2023-04-03T01:59:31;3.27;;;1.50;;
1569;SDS011;778;50.120;8.698;2023-04-03T02:02:00;3.17;;;1.70;;
1569;SDS011;778;50.120;8.698;2023-04-03T02:04:30;2.93;;;1.60;;
1569;SDS011;778;50.120;8.698;2023-04-03T02:06:59;1.63;;;1.23;;
1569;SDS011;778;50.120;8.698;2023-04-03T02:09:27;3.00;;;1.57;;
1569;SDS011;778;50.120;8.698;2023-04-03T02:11:56;3.83;;;1.90;;
1569;SDS011;778;50.120;8.698;2023-04-03T02:14:24;3.67;;;1.20;;
1569;SDS011;778;50.120;8.698;2023-04-03T02:16:53;2.87;;;1.40;;
1569;SDS011;778;50.120;8.698;2023-04-03T02:19:22;2.30;;;1.47;;
1569;SDS011;778;50.120;8.698;2023-04-03T02:21:52;2.77;;;1.40;;
1569;SDS011;778;50.120;8.698;2023-04-03T02:24:21;3.73;;;2.00;;
1569;SDS011;778;50.120;8.698;2023-04-03T02:26:49;1.70;;;1.50;;
1569;SDS011;778;50.120;8.698;2023-04-03T02:29:18;3.23;;;1.50;;
1569;SDS011;778;50.120;8.698;2023-04-03T02:31:47;3.20;;;1.60;;
1569;SDS011;778;50.120;8.698;2023-04-03T02:34:15;5.13;;;2.03;;
1569;SDS011;778;50.120;8.698;2023-04-03T02:36:45;2.20;;;1.40;;
1569;SDS011;778;50.120;8.698;2023-04-03T02:39:16;3.13;;;1.50;;
1569;SDS011;778;50.120;8.698;2023-04-03T02:41:44;2.97;;;1.63;;
1569;SDS011;778;50.120;8.698;2023-04-03T02:44:18;3.07;;;1.30;;
1569;SDS011;778;50.120;8.698;2023-04-03T02:46:46;2.70;;;1.07;;
1569;SDS011;778;50.120;8.698;2023-04-03T02:49:16;4.13;;;2.00;;
1569;SDS011;778;50.120;8.698;2023-04-03T02:51:44;3.33;;;1.60;;
1569;SDS011;778;50.120;8.698;2023-04-03T02:54:14;8.30;;;2.40;;
1569;SDS011;778;50.120;8.698;2023-04-03T02:56:48;1.77;;;1.67;;
1569;SDS011;778;50.120;8.698;2023-04-03T02:59:17;4.70;;;1.70;;
1569;SDS011;778;50.120;8.698;2023-04-03T03:01:46;2.97;;;1.70;;
1569;SDS011;778;50.120;8.698;2023-04-03T03:04:15;2.33;;;1.37;;
1569;SDS011;778;50.120;8.698;2023-04-03T03:06:43;2.53;;;1.40;;
1569;SDS011;778;50.120;8.698;2023-04-03T03:09:13;2.77;;;1.30;;
1569;SDS011;778;50.120;8.698;2023-04-03T03:11:43;2.83;;;1.03;;
1569;SDS011;778;50.120;8.698;2023-04-03T03:14:11;3.50;;;1.50;;
1569;SDS011;778;50.120;8.698;2023-04-03T03:16:40;4.63;;;1.87;;
1569;SDS011;778;50.120;8.698;2023-04-03T03:19:08;2.70;;;1.40;;
1569;SDS011;778;50.120;8.698;2023-04-03T03:21:37;1.43;;;1.20;;
1569;SDS011;778;50.120;8.698;2023-04-03T03:24:06;2.10;;;1.20;;
1569;SDS011;778;50.120;8.698;2023-04-03T03:26:36;4.00;;;1.53;;
1569;SDS011;778;50.120;8.698;2023-04-03T03:29:05;2.80;;;1.30;;
1569;SDS011;778;50.120;8.698;2023-04-03T03:31:33;2.30;;;1.60;;
1569;SDS011;778;50.120;8.698;2023-04-03T03:34:02;2.50;;;1.03;;
1569;SDS011;778;50.120;8.698;2023-04-03T03:36:30;1.90;;;1.00;;
1569;SDS011;778;50.120;8.698;2023-04-03T03:38:59;3.73;;;1.93;;
1569;SDS011;778;50.120;8.698;2023-04-03T03:41:28;3.37;;;1.40;;
1569;SDS011;778;50.120;8.698;2023-04-03T03:43:58;2.93;;;1.40;;
1569;SDS011;778;50.120;8.698;2023-04-03T03:46:30;2.60;;;1.20;;
1569;SDS011;778;50.120;8.698;2023-04-03T03:48:58;3.27;;;1.40;;
1569;SDS011;778;50.120;8.698;2023-04-03T03:51:27;5.27;;;1.10;;
1569;SDS011;778;50.120;8.698;2023-04-03T03:53:56;2.60;;;1.07;;
1569;SDS011;778;50.120;8.698;2023-04-03T03:56:25;5.43;;;1.43;;
1569;SDS011;778;50.120;8.698;2023-04-03T03:58:54;3.13;;;1.60;;
1569;SDS011;778;50.120;8.698;2023-04-03T04:01:24;2.33;;;1.93;;
1569;SDS011;778;50.120;8.698;2023-04-03T04:03:52;1.50;;;1.17;;
1569;SDS011;778;50.120;8.698;2023-04-03T04:06:25;1.80;;;0.87;;
1569;SDS011;778;50.120;8.698;2023-04-03T04:08:57;2.50;;;1.10;;
1569;SDS011;778;50.120;8.698;2023-04-03T04:11:27;2.60;;;1.40;;
1569;SDS011;778;50.120;8.698;2023-04-03T04:13:56;3.73;;;1.27;;
1569;SDS011;778;50.120;8.698;2023-04-03T04:16:28;2.57;;;1.17;;
1569;SDS011;778;50.120;8.698;2023-04-03T04:19:02;3.60;;;1.33;;
1569;SDS011;778;50.120;8.698;2023-04-03T04:21:34;2.83;;;1.17;;
1569;SDS011;778;50.120;8.698;2023-04-03T04:24:03;4.93;;;1.70;;
1569;SDS011;778;50.120;8.698;2023-04-03T04:26:33;3.57;;;1.23;;
1569;SDS011;778;50.120;8.698;2023-04-03T04:29:02;1.87;;;1.60;;
1569;SDS011;778;50.120;8.698;2023-04-03T04:31:34;2.70;;;1.37;;
1569;SDS011;778;50.120;8.698;2023-04-03T04:34:03;6.10;;;1.93;;
1569;SDS011;778;50.120;8.698;2023-04-03T04:36:33;3.50;;;1.40;;
1569;SDS011;778;50.120;8.698;2023-04-03T04:39:02;3.17;;;1.40;;
1569;SDS011;778;50.120;8.698;2023-04-03T04:41:30;5.13;;;1.70;;
1569;SDS011;778;50.120;8.698;2023-04-03T04:44:00;3.33;;;1.10;;
1569;SDS011;778;50.120;8.698;2023-04-03T04:46:30;3.10;;;1.37;;
1569;SDS011;778;50.120;8.698;2023-04-03T04:49:00;4.40;;;1.83;;
1569;SDS011;778;50.120;8.698;2023-04-03T04:51:30;4.73;;;1.43;;
1569;SDS011;778;50.120;8.698;2023-04-03T04:54:15;6.90;;;2.00;;
1569;SDS011;778;50.120;8.698;2023-04-03T04:56:45;3.70;;;1.57;;
1569;SDS011;778;50.120;8.698;2023-04-03T04:59:13;2.50;;;1.50;;
1569;SDS011;778;50.120;8.698;2023-04-03T05:01:42;2.50;;;1.30;;
1569;SDS011;778;50.120;8.698;2023-04-03T05:04:16;7.13;;;2.70;;
1569;SDS011;778;50.120;8.698;2023-04-03T05:06:48;4.90;;;2.17;;
1569;SDS011;778;50.120;8.698;2023-04-03T05:09:21;3.27;;;1.90;;
1569;SDS011;778;50.120;8.698;2023-04-03T05:11:51;3.37;;;2.30;;
1569;SDS011;778;50.120;8.698;2023-04-03T05:14:23;7.13;;;2.20;;
1569;SDS011;778;50.120;8.698;2023-04-03T05:16:54;6.40;;;1.93;;
1569;SDS011;778;50.120;8.698;2023-04-03T05:19:28;2.60;;;1.53;;
1569;SDS011;778;50.120;8.698;2023-04-03T05:21:58;3.73;;;2.07;;
1569;SDS011;778;50.120;8.698;2023-04-03T05:24:28;2.00;;;1.77;;
1569;SDS011;778;50.120;8.698;2023-04-03T05:26:57;3.80;;;2.30;;
1569;SDS011;778;50.120;8.698;2023-04-03T05:29:26;5.13;;;2.00;;
1569;SDS011;778;50.120;8.698;2023-04-03T05:31:57;5.80;;;1.80;;
1569;SDS011;778;50.120;8.698;2023-04-03T05:34:26;4.40;;;1.73;;
1569;SDS011;778;50.120;8.698;2023-04-03T05:36:56;3.87;;;1.63;;
1569;SDS011;778;50.120;8.698;2023-04-03T05:39:26;5.37;;;1.63;;
1569;SDS011;778;50.120;8.698;2023-04-03T05:41:55;3.67;;;2.20;;
1569;SDS011;778;50.120;8.698;2023-04-03T05:44:24;3.63;;;2.40;;
1569;SDS011;778;50.120;8.698;2023-04-03T05:46:54;3.07;;;1.97;;
1569;SDS011;778;50.120;8.698;2023-04-03T05:49:22;3.37;;;2.93;;
1569;SDS011;778;50.120;8.698;2023-04-03T05:51:52;6.77;;;2.40;;
1569;SDS011;778;50.120;8.698;2023-04-03T05:54:24;5.13;;;2.30;;
1569;SDS011;778;50.120;8.698;2023-04-03T05:57:21;4.80;;;2.40;;
1569;SDS011;778;50.120;8.698;2023-04-03T05:59:50;3.40;;;2.70;;
1569;SDS011;778;50.120;8.698;2023-04-03T06:02:21;6.57;;;2.40;;
1569;SDS011;778;50.120;8.698;2023-04-03T06:04:52;4.60;;;2.60;;
1569;SDS011;778;50.120;8.698;2023-04-03T06:07:22;2.60;;;2.20;;
1569;SDS011;778;50.120;8.698;2023-04-03T06:09:55;6.40;;;3.07;;
1569;SDS011;778;50.120;8.698;2023-04-03T06:12:24;4.30;;;2.27;;
1569;SDS011;778;50.120;8.698;2023-04-03T06:14:55;4.50;;;2.47;;
1569;SDS011;778;50.120;8.698;2023-04-03T06:17:24;3.50;;;2.63;;
1569;SDS011;778;50.120;8.698;2023-04-03T06:19:53;5.40;;;2.83;;
1569;SDS011;778;50.120;8.698;2023-04-03T06:22:23;5.53;;;2.30;;
1569;SDS011;778;50.120;8.698;2023-04-03T06:24:53;6.30;;;2.53;;
1569;SDS011;778;50.120;8.698;2023-04-03T06:27:22;3.97;;;2.37;;
1569;SDS011;778;50.120;8.698;2023-04-03T06:29:50;6.13;;;3.43;;
1569;SDS011;778;50.120;8.698;2023-04-03T06:32:19;7.70;;;2.50;;
1569;SDS011;778;50.120;8.698;2023-04-03T06:34:47;4.80;;;2.30;;
1569;SDS011;778;50.120;8.698;2023-04-03T06:37:16;5.03;;;2.47;;
1569;SDS011;778;50.120;8.698;2023-04-03T06:39:48;5.97;;;2.83;;
1569;SDS011;778;50.120;8.698;2023-04-03T06:42:17;6.07;;;2.97;;
1569;SDS011;778;50.120;8.698;2023-04-03T06:44:52;12.20;;;3.17;;
1569;SDS011;778;50.120;8.698;2023-04-03T06:47:21;5.50;;;2.87;;
1569;SDS011;778;50.120;8.698;2023-04-03T06:49:49;5.17;;;2.00;;
1569;SDS011;778;50.120;8.698;2023-04-03T06:52:18;3.67;;;2.30;;
1569;SDS011;778;50.120;8.698;2023-04-03T06:54:48;7.00;;;2.63;;
1569;SDS011;778;50.120;8.698;2023-04-03T06:57:18;4.43;;;3.20;;
1569;SDS011;778;50.120;8.698;2023-04-03T06:59:47;4.90;;;2.40;;
1569;SDS011;778;50.120;8.698;2023-04-03T07:02:15;3.73;;;2.47;;
1569;SDS011;778;50.120;8.698;2023-04-03T07:04:43;3.83;;;2.50;;
1569;SDS011;778;50.120;8.698;2023-04-03T07:07:12;4.37;;;2.60;;
1569;SDS011;778;50.120;8.698;2023-04-03T07:09:41;4.90;;;2.03;;
1569;SDS011;778;50.120;8.698;2023-04-03T07:12:12;3.63;;;2.23;;
1569;SDS011;778;50.120;8.698;2023-04-03T07:14:40;3.57;;;2.10;;
1569;SDS011;778;50.120;8.698;2023-04-03T07:17:09;4.53;;;2.40;;
1569;SDS011;778;50.120;8.698;2023-04-03T07:19:37;4.90;;;2.53;;
1569;SDS011;778;50.120;8.698;2023-04-03T07:22:05;4.10;;;2.70;;
1569;SDS011;778;50.120;8.698;2023-04-03T07:24:34;5.73;;;2.67;;
1569;SDS011;778;50.120;8.698;2023-04-03T07:27:03;4.10;;;2.27;;
1569;SDS011;778;50.120;8.698;2023-04-03T07:29:33;4.87;;;2.93;;
1569;SDS011;778;50.120;8.698;2023-04-03T07:32:01;4.97;;;2.53;;
1569;SDS011;778;50.120;8.698;2023-04-03T07:34:30;2.90;;;2.10;;
1569;SDS011;778;50.120;8.698;2023-04-03T07:36:59;7.47;;;2.70;;
1569;SDS011;778;50.120;8.698;2023-04-03T07:39:28;3.90;;;2.60;;
1569;SDS011;778;50.120;8.698;2023-04-03T07:41:57;4.53;;;2.47;;
1569;SDS011;778;50.120;8.698;2023-04-03T07:44:26;6.13;;;1.77;;
1569;SDS011;778;50.120;8.698;2023-04-03T07:46:56;4.43;;;2.50;;
1569;SDS011;778;50.120;8.698;2023-04-03T07:49:24;2.77;;;1.70;;
1569;SDS011;778;50.120;8.698;2023-04-03T07:51:53;6.87;;;2.60;;
1569;SDS011;778;50.120;8.698;2023-04-03T07:54:22;2.73;;;2.10;;
1569;SDS011;778;50.120;8.698;2023-04-03T07:56:50;7.07;;;3.40;;
1569;SDS011;778;50.120;8.698;2023-04-03T07:59:19;5.00;;;1.87;;
1569;SDS011;778;50.120;8.698;2023-04-03T08:01:47;6.30;;;2.80;;
1569;SDS011;778;50.120;8.698;2023-04-03T08:04:17;3.60;;;2.50;;
1569;SDS011;778;50.120;8.698;2023-04-03T08:06:46;3.37;;;2.40;;
1569;SDS011;778;50.120;8.698;2023-04-03T08:09:14;4.03;;;2.17;;
1569;SDS011;778;50.120;8.698;2023-04-03T08:11:43;3.80;;;2.37;;
1569;SDS011;778;50.120;8.698;2023-04-03T08:14:12;4.43;;;2.40;;
1569;SDS011;778;50.120;8.698;2023-04-03T08:16:45;6.63;;;3.23;;
1569;SDS011;778;50.120;8.698;2023-04-03T08:19:14;4.93;;;2.80;;
1569;SDS011;778;50.120;8.698;2023-04-03T08:21:52;4.10;;;2.30;;
1569;SDS011;778;50.120;8.698;2023-04-03T08:24:21;4.87;;;1.90;;
1569;SDS011;778;50.120;8.698;2023-04-03T08:26:50;5.97;;;2.00;;
1569;SDS011;778;50.120;8.698;2023-04-03T08:29:18;3.83;;;1.90;;
1569;SDS011;778;50.120;8.698;2023-04-03T08:31:47;3.70;;;2.50;;
1569;SDS011;778;50.120;8.698;2023-04-03T08:34:18;2.73;;;1.77;;
1569;SDS011;778;50.120;8.698;2023-04-03T08:36:47;5.00;;;2.93;;
1569;SDS011;778;50.120;8.698;2023-04-03T08:39:16;3.77;;;2.20;;
1569;SDS011;778;50.120;8.698;2023-04-03T08:41:44;2.77;;;2.07;;
1569;SDS011;778;50.120;8.698;2023-04-03T08:44:15;6.53;;;2.70;;
1569;SDS011;778;50.120;8.698;2023-04-03T08:46:54;4.50;;;2.10;;
1569;SDS011;778;50.120;8.698;2023-04-03T08:49:33;5.03;;;2.33;;
1569;SDS011;778;50.120;8.698;2023-04-03T08:52:10;2.70;;;2.27;;
1569;SDS011;778;50.120;8.698;2023-04-03T08:54:47;5.03;;;2.10;;
1569;SDS011;778;50.120;8.698;2023-04-03T08:57:20;3.40;;;2.00;;
1569;SDS011;778;50.120;8.698;2023-04-03T08:59:57;4.47;;;2.23;;
1569;SDS011;778;50.120;8.698;2023-04-03T09:02:31;3.23;;;1.90;;
1569;SDS011;778;50.120;8.698;2023-04-03T09:05:08;2.90;;;2.00;;
1569;SDS011;778;50.120;8.698;2023-04-03T09:07:43;4.73;;;2.40;;
1569;SDS011;778;50.120;8.698;2023-04-03T09:10:15;2.23;;;2.03;;
1569;SDS011;778;50.120;8.698;2023-04-03T09:12:53;5.20;;;2.27;;
1569;SDS011;778;50.120;8.698;2023-04-03T09:15:29;4.07;;;2.30;;
1569;SDS011;778;50.120;8.698;2023-04-03T09:18:06;3.50;;;2.27;;
1569;SDS011;778;50.120;8.698;2023-04-03T09:20:45;7.80;;;3.80;;
1569;SDS011;778;50.120;8.698;2023-04-03T09:23:22;4.07;;;2.40;;
1569;SDS011;778;50.120;8.698;2023-04-03T09:25:58;2.73;;;1.90;;
1569;SDS011;778;50.120;8.698;2023-04-03T09:28:34;4.23;;;2.57;;
1569;SDS011;778;50.120;8.698;2023-04-03T09:31:19;3.23;;;2.57;;
1569;SDS011;778;50.120;8.698;2023-04-03T09:33:50;5.33;;;2.40;;
1569;SDS011;778;50.120;8.698;2023-04-03T09:39:13;3.40;;;2.20;;
1569;SDS011;778;50.120;8.698;2023-04-03T09:41:54;3.43;;;2.23;;
1569;SDS011;778;50.120;8.698;2023-04-03T09:44:28;3.83;;;2.30;;
1569;SDS011;778;50.120;8.698;2023-04-03T09:46:59;3.03;;;2.43;;
1569;SDS011;778;50.120;8.698;2023-04-03T09:49:45;4.07;;;2.00;;
1569;SDS011;778;50.120;8.698;2023-04-03T09:52:24;4.93;;;2.20;;
1569;SDS011;778;50.120;8.698;2023-04-03T09:54:55;5.83;;;2.17;;
1569;SDS011;778;50.120;8.698;2023-04-03T09:57:35;3.63;;;2.70;;
1569;SDS011;778;50.120;8.698;2023-04-03T10:00:05;4.53;;;2.73;;
1569;SDS011;778;50.120;8.698;2023-04-03T10:02:49;4.03;;;2.17;;
1569;SDS011;778;50.120;8.698;2023-04-03T10:05:28;2.97;;;2.23;;
1569;SDS011;778;50.120;8.698;2023-04-03T10:08:09;3.67;;;2.33;;
1569;SDS011;778;50.120;8.698;2023-04-03T10:11:05;2.70;;;1.60;;
1569;SDS011;778;50.120;8.698;2023-04-03T10:13:49;3.30;;;2.57;;
1569;SDS011;778;50.120;8.698;2023-04-03T10:16:25;4.20;;;2.90;;
1569;SDS011;778;50.120;8.698;2023-04-03T10:22:11;5.03;;;2.77;;
1569;SDS011;778;50.120;8.698;2023-04-03T10:24:58;3.43;;;3.13;;
1569;SDS011;778;50.120;8.698;2023-04-03T10:27:38;2.23;;;2.03;;
1569;SDS011;778;50.120;8.698;2023-04-03T10:30:19;3.60;;;2.43;;
1569;SDS011;778;50.120;8.698;2023-04-03T10:33:11;4.03;;;2.37;;
1569;SDS011;778;50.120;8.698;2023-04-03T10:35:53;4.80;;;2.80;;
1569;SDS011;778;50.120;8.698;2023-04-03T10:38:38;4.53;;;3.13;;
1569;SDS011;778;50.120;8.698;2023-04-03T10:41:22;5.77;;;2.27;;
1569;SDS011;778;50.120;8.698;2023-04-03T10:44:04;5.73;;;2.80;;
1569;SDS011;778;50.120;8.698;2023-04-03T10:46:44;2.67;;;2.47;;
1569;SDS011;778;50.120;8.698;2023-04-03T10:49:20;3.27;;;2.97;;
1569;SDS011;778;50.120;8.698;2023-04-03T10:52:11;5.07;;;2.60;;
1569;SDS011;778;50.120;8.698;2023-04-03T10:54:47;4.20;;;2.50;;
1569;SDS011;778;50.120;8.698;2023-04-03T10:57:24;4.03;;;2.70;;
1569;SDS011;778;50.120;8.698;2023-04-03T10:59:55;6.17;;;2.60;;
1569;SDS011;778;50.120;8.698;2023-04-03T11:02:28;2.57;;;2.37;;
1569;SDS011;778;50.120;8.698;2023-04-03T11:04:59;3.80;;;2.87;;
1569;SDS011;778;50.120;8.698;2023-04-03T11:07:37;6.53;;;4.50;;
1569;SDS011;778;50.120;8.698;2023-04-03T11:10:10;2.50;;;2.30;;
1569;SDS011;778;50.120;8.698;2023-04-03T11:12:46;2.90;;;2.60;;
1569;SDS011;778;50.120;8.698;2023-04-03T11:15:18;2.60;;;1.93;;
1569;SDS011;778;50.120;8.698;2023-04-03T11:17:49;3.90;;;2.20;;
1569;SDS011;778;50.120;8.698;2023-04-03T11:20:23;2.67;;;2.20;;
1569;SDS011;778;50.120;8.698;2023-04-03T11:23:00;4.40;;;3.00;;
1569;SDS011;778;50.120;8.698;2023-04-03T11:25:32;5.63;;;2.63;;
1569;SDS011;778;50.120;8.698;2023-04-03T11:28:06;2.90;;;2.17;;
1569;SDS011;778;50.120;8.698;2023-04-03T11:30:42;2.10;;;1.90;;
1569;SDS011;778;50.120;8.698;2023-04-03T11:33:20;5.20;;;2.60;;
1569;SDS011;778;50.120;8.698;2023-04-03T11:35:59;4.77;;;2.50;;
1569;SDS011;778;50.120;8.698;2023-04-03T11:38:51;2.47;;;2.27;;
1569;SDS011;778;50.120;8.698;2023-04-03T11:41:24;3.37;;;2.23;;
1569;SDS011;778;50.120;8.698;2023-04-03T11:43:57;2.17;;;1.97;;
1569;SDS011;778;50.120;8.698;2023-04-03T11:46:48;2.30;;;2.10;;
1569;SDS011;778;50.120;8.698;2023-04-03T11:58:28;3.30;;;2.20;;
1569;SDS011;778;50.120;8.698;2023-04-03T12:01:02;3.90;;;2.50;;
1569;SDS011;778;50.120;8.698;2023-04-03T12:12:56;2.70;;;2.10;;
1569;SDS011;778;50.120;8.698;2023-04-03T12:24:41;2.77;;;2.50;;
1569;SDS011;778;50.120;8.698;2023-04-03T12:27:21;3.57;;;2.23;;
1569;SDS011;778;50.120;8.698;2023-04-03T12:30:07;3.87;;;2.30;;
1569;SDS011;778;50.120;8.698;2023-04-03T12:32:47;2.50;;;2.30;;
1569;SDS011;778;50.120;8.698;2023-04-03T12:35:49;3.73;;;2.40;;
1569;SDS011;778;50.120;8.698;2023-04-03T12:38:34;1.90;;;1.80;;
1569;SDS011;778;50.120;8.698;2023-04-03T12:41:19;1.70;;;1.50;;
1569;SDS011;778;50.120;8.698;2023-04-03T12:44:12;2.03;;;1.93;;
1569;SDS011;778;50.120;8.698;2023-04-03T12:47:08;3.30;;;2.30;;
1569;SDS011;778;50.120;8.698;2023-04-03T12:49:52;2.90;;;2.00;;
1569;SDS011;778;50.120;8.698;2023-04-03T12:52:29;5.03;;;2.60;;
1569;SDS011;778;50.120;8.698;2023-04-03T12:55:03;2.73;;;2.53;;
1569;SDS011;778;50.120;8.698;2023-04-03T12:57:42;7.80;;;2.27;;
1569;SDS011;778;50.120;8.698;2023-04-03T13:00:21;4.27;;;2.40;;
1569;SDS011;778;50.120;8.698;2023-04-03T13:03:02;2.27;;;1.83;;
1569;SDS011;778;50.120;8.698;2023-04-03T13:05:32;2.40;;;2.20;;
1569;SDS011;778;50.120;8.698;2023-04-03T13:08:04;3.00;;;2.10;;
1569;SDS011;778;50.120;8.698;2023-04-03T13:10:43;3.60;;;2.70;;
1569;SDS011;778;50.120;8.698;2023-04-03T13:13:18;2.90;;;1.90;;
1569;SDS011;778;50.120;8.698;2023-04-03T13:15:47;2.80;;;2.20;;
1569;SDS011;778;50.120;8.698;2023-04-03T13:18:21;2.27;;;2.07;;
1569;SDS011;778;50.120;8.698;2023-04-03T13:20:53;5.37;;;2.43;;
1569;SDS011;778;50.120;8.698;2023-04-03T13:23:28;2.40;;;2.20;;
1569;SDS011;778;50.120;8.698;2023-04-03T13:25:58;4.70;;;2.90;;
1569;SDS011;778;50.120;8.698;2023-04-03T13:28:30;5.57;;;2.67;;
1569;SDS011;778;50.120;8.698;2023-04-03T13:31:02;7.07;;;2.90;;
1569;SDS011;778;50.120;8.698;2023-04-03T13:33:36;4.20;;;3.60;;
1569;SDS011;778;50.120;8.698;2023-04-03T13:36:06;5.47;;;2.90;;
1569;SDS011;778;50.120;8.698;2023-04-03T13:38:45;4.47;;;3.00;;
1569;SDS011;778;50.120;8.698;2023-04-03T13:41:29;3.13;;;2.70;;
1569;SDS011;778;50.120;8.698;2023-04-03T13:44:14;3.57;;;2.50;;
1569;SDS011;778;50.120;8.698;2023-04-03T13:46:45;4.20;;;3.37;;
1569;SDS011;778;50.120;8.698;2023-04-03T13:49:18;5.30;;;3.30;;
1569;SDS011;778;50.120;8.698;2023-04-03T13:51:50;4.90;;;2.90;;
1569;SDS011;778;50.120;8.698;2023-04-03T13:54:34;5.87;;;3.07;;
1569;SDS011;778;50.120;8.698;2023-04-03T13:57:11;3.50;;;2.83;;
1569;SDS011;778;50.120;8.698;2023-04-03T13:59:42;4.00;;;2.40;;
1569;SDS011;778;50.120;8.698;2023-04-03T14:02:15;3.50;;;2.60;;
1569;SDS011;778;50.120;8.698;2023-04-03T14:04:48;2.87;;;2.37;;
1569;SDS011;778;50.120;8.698;2023-04-03T14:07:23;3.30;;;2.50;;
1569;SDS011;778;50.120;8.698;2023-04-03T14:09:53;5.10;;;3.10;;
1569;SDS011;778;50.120;8.698;2023-04-03T14:12:25;3.03;;;2.27;;
1569;SDS011;778;50.120;8.698;2023-04-03T14:14:58;4.50;;;2.43;;
1569;SDS011;778;50.120;8.698;2023-04-03T14:17:31;3.27;;;2.27;;
1569;SDS011;778;50.120;8.698;2023-04-03T14:19:59;3.33;;;2.20;;
1569;SDS011;778;50.120;8.698;2023-04-03T14:22:29;2.03;;;1.87;;
1569;SDS011;778;50.120;8.698;2023-04-03T14:25:01;4.57;;;2.13;;
1569;SDS011;778;50.120;8.698;2023-04-03T14:27:34;2.30;;;1.60;;
1569;SDS011;778;50.120;8.698;2023-04-03T14:30:07;1.83;;;1.50;;
1569;SDS011;778;50.120;8.698;2023-04-03T14:32:43;3.87;;;2.00;;
1569;SDS011;778;50.120;8.698;2023-04-03T14:35:13;2.67;;;1.93;;
1569;SDS011;778;50.120;8.698;2023-04-03T14:37:42;2.87;;;1.33;;
1569;SDS011;778;50.120;8.698;2023-04-03T14:40:15;4.60;;;1.87;;
1569;SDS011;778;50.120;8.698;2023-04-03T14:42:47;7.13;;;2.03;;
1569;SDS011;778;50.120;8.698;2023-04-03T14:45:16;1.80;;;1.57;;
1569;SDS011;778;50.120;8.698;2023-04-03T14:47:47;3.00;;;1.70;;
1569;SDS011;778;50.120;8.698;2023-04-03T14:50:20;2.00;;;1.70;;
1569;SDS011;778;50.120;8.698;2023-04-03T14:52:50;2.20;;;1.50;;
1569;SDS011;778;50.120;8.698;2023-04-03T14:55:23;5.17;;;1.70;;
1569;SDS011;778;50.120;8.698;2023-04-03T14:57:54;1.90;;;1.27;;
1569;SDS011;778;50.120;8.698;2023-04-03T15:00:23;2.47;;;1.47;;
1569;SDS011;778;50.120;8.698;2023-04-03T15:02:51;2.50;;;1.70;;
1569;SDS011;778;50.120;8.698;2023-04-03T15:05:20;1.90;;;1.40;;
1569;SDS011;778;50.120;8.698;2023-04-03T15:07:49;9.30;;;6.20;;
1569;SDS011;778;50.120;8.698;2023-04-03T15:10:27;4.03;;;3.63;;
1569;SDS011;778;50.120;8.698;2023-04-03T15:12:57;2.70;;;2.37;;
1569;SDS011;778;50.120;8.698;2023-04-03T15:15:28;2.30;;;1.73;;
1569;SDS011;778;50.120;8.698;2023-04-03T15:17:57;4.00;;;1.60;;
1569;SDS011;778;50.120;8.698;2023-04-03T15:20:26;2.23;;;1.40;;
1569;SDS011;778;50.120;8.698;2023-04-03T15:22:59;1.57;;;1.07;;
1569;SDS011;778;50.120;8.698;2023-04-03T15:25:29;4.83;;;1.90;;
1569;SDS011;778;50.120;8.698;2023-04-03T15:27:59;2.10;;;1.40;;
1569;SDS011;778;50.120;8.698;2023-04-03T15:30:27;2.37;;;1.50;;
1569;SDS011;778;50.120;8.698;2023-04-03T15:32:56;4.37;;;1.77;;
1569;SDS011;778;50.120;8.698;2023-04-03T15:35:24;2.90;;;1.93;;
1569;SDS011;778;50.120;8.698;2023-04-03T15:37:53;2.73;;;1.53;;
1569;SDS011;778;50.120;8.698;2023-04-03T15:40:21;3.80;;;1.77;;
1569;SDS011;778;50.120;8.698;2023-04-03T15:42:51;1.67;;;1.50;;
1569;SDS011;778;50.120;8.698;2023-04-03T15:45:20;1.33;;;1.00;;
1569;SDS011;778;50.120;8.698;2023-04-03T15:47:48;1.80;;;1.30;;
1569;SDS011;778;50.120;8.698;2023-04-03T15:50:18;2.33;;;1.30;;
1569;SDS011;778;50.120;8.698;2023-04-03T15:52:48;4.23;;;0.93;;
1569;SDS011;778;50.120;8.698;2023-04-03T15:55:20;1.33;;;1.23;;
1569;SDS011;778;50.120;8.698;2023-04-03T15:57:50;3.67;;;1.10;;
1569;SDS011;778;50.120;8.698;2023-04-03T16:00:19;1.77;;;1.30;;
1569;SDS011;778;50.120;8.698;2023-04-03T16:02:50;2.83;;;1.50;;
1569;SDS011;778;50.120;8.698;2023-04-03T16:05:21;2.93;;;1.60;;
1569;SDS011;778;50.120;8.698;2023-04-03T16:07:49;2.93;;;1.33;;
1569;SDS011;778;50.120;8.698;2023-04-03T16:10:18;2.50;;;0.90;;
1569;SDS011;778;50.120;8.698;2023-04-03T16:12:47;4.23;;;1.60;;
1569;SDS011;778;50.120;8.698;2023-04-03T16:15:17;2.10;;;1.30;;
1569;SDS011;778;50.120;8.698;2023-04-03T16:17:47;1.73;;;1.17;;
1569;SDS011;778;50.120;8.698;2023-04-03T16:20:16;2.60;;;1.90;;
1569;SDS011;778;50.120;8.698;2023-04-03T16:22:45;3.63;;;1.70;;
1569;SDS011;778;50.120;8.698;2023-04-03T16:25:13;2.17;;;1.33;;
1569;SDS011;778;50.120;8.698;2023-04-03T16:27:42;2.07;;;1.60;;
1569;SDS011;778;50.120;8.698;2023-04-03T16:30:11;2.67;;;1.43;;
1569;SDS011;778;50.120;8.698;2023-04-03T16:32:41;2.97;;;1.40;;
1569;SDS011;778;50.120;8.698;2023-04-03T16:35:10;4.23;;;1.33;;